Terminal Aerodrome Forecast
Issued by NWS

Home | Current Version | Previous Version | Text Only | Print | Product List | Glossary On
Versions: 1 2 3 4 5 6 7 8 9 10 11 12 13
557
FTUS45 KVEF 251733
TAFVGT
TAF
KVGT 251733Z 2518/2618 VRB04KT P6SM FEW250
     FM252000 10008KT P6SM FEW250
     FM260300 VRB05KT P6SM FEW250=

USA.gov is the U.S. government's official web portal to all federal, state and local government web resources and services.